Portada
METAR-TAF:

METAR-TAF

Aeroports :

Bangalore, Índia

latitud: 13-11-56N, longitud: 077-42-20E, altitud: 915 m

Observació

L'informe es va fer fa 38 minuts, a les 20:30 UTC
Vent calma
Temperatura 17°C
Humitat 77%
Pressió 1019 hPa
Visibilitat: 5000 m
Escasses núvols a una alçada de 1000 ft
boirina

METAR: VOBL 172030Z 00000KT 5000 BR FEW010 17/13 Q1019 NOSIG

Hora: 02:38 (21:08 UTC)

Pronòstic

L'informe es va fer fa 1 hora i 8 minuts, a les 20:00 UTC
Pronòstic vàlid del 17 a les 21 UTC al 18 a les 06 UTC
Vent 2 kt amb direcció variable
Visibilitat: 6000 m
Escasses núvols a una alçada de 1500 ft
Evolucionant progressivament
l' 17 a les 22 UTC al 17 a les 23 UTC
Visibilitat: 3000 m
Núvols disperses a una alçada de 1000 ft
boirina
Evolucionant progressivament
l' 18 a les 04 UTC al 18 a les 05 UTC
Vent 10 kt del Est/Sud-Est
Visibilitat: 6000 m
Escasses núvols a una alçada de 1500 ft

TAF: VOBL 172000Z 1721/1806 VRB02KT 6000 FEW015 BECMG 1722/1723 3000 BR SCT010 BECMG 1804/1805 11010KT 6000 FEW015

Observacions i pronòstics meteorològics de més de 4000 aeroports (METAR i TAF).

Les estacions disponibles són els punts grocs i vermells al mapa.

Posi el ratolí al punt desitjat per veure el nom de l'estació.

Feu clic per veure les observacions i els pronòstics meteorològics.

Per canviar el mapa: feu clic els botons verds amb una creu de color negre per apropar; al botó verd amb un guió per allunyar la imatge; o en les fletxes verdes per a mapes adjacents.


METAR-TAF: